Time;durP1;ratioP1;P1;durP2;ratioP2;P2;SDS_P1;SDS_P2;PMS_P1;PMS_P2;Temp;Humidity;BMP_temperature;BMP_pressure;BME280_temperature;BME280_humidity;BME280_pressure;Samples;Min_cycle;Max_cycle;Signal;HPM_P1;HPM_P2
2024/03/13 00:01:52;;;;;;;6.27;2.77;;;;;;;;;;5091724;28;20228;-84
2024/03/13 00:04:19;;;;;;;6.93;2.67;;;;;;;;;;5091317;28;20222;-86
2024/03/13 00:06:47;;;;;;;5.27;2.50;;;;;;;;;;5091115;28;20201;-85
2024/03/13 00:09:16;;;;;;;6.17;2.80;;;;;;;;;;5091632;28;20200;-86
2024/03/13 00:11:44;;;;;;;5.30;2.40;;;;;;;;;;5091798;28;20348;-84
2024/03/13 00:14:11;;;;;;;3.60;2.30;;;;;;;;;;5109899;28;20690;-86
2024/03/13 00:16:38;;;;;;;6.97;3.20;;;;;;;;;;5111595;28;20232;-85
2024/03/13 00:19:09;;;;;;;7.80;3.50;;;;;;;;;;5111900;28;20203;-86
2024/03/13 00:21:38;;;;;;;7.80;3.70;;;;;;;;;;5111744;28;20274;-85
2024/03/13 00:24:06;;;;;;;9.30;4.53;;;;;;;;;;5110937;28;20225;-85
2024/03/13 00:26:34;;;;;;;10.73;4.63;;;;;;;;;;5111694;28;20204;-86
2024/03/13 00:29:04;;;;;;;10.93;4.37;;;;;;;;;;5111731;28;20579;-85
2024/03/13 00:31:31;;;;;;;7.73;4.10;;;;;;;;;;5115663;28;20246;-85
2024/03/13 00:34:00;;;;;;;6.57;3.93;;;;;;;;;;5116003;28;20226;-85
2024/03/13 00:36:29;;;;;;;7.00;3.83;;;;;;;;;;5115467;28;20193;-85
2024/03/13 00:38:58;;;;;;;7.20;3.47;;;;;;;;;;5115689;28;20281;-84
2024/03/13 00:41:25;;;;;;;11.03;3.73;;;;;;;;;;5096998;28;20261;-85
2024/03/13 00:43:53;;;;;;;9.77;3.50;;;;;;;;;;5115462;28;20182;-85
2024/03/13 00:46:23;;;;;;;10.50;3.83;;;;;;;;;;5115187;28;20198;-85
2024/03/13 00:48:50;;;;;;;6.93;2.90;;;;;;;;;;5115736;28;20189;-84
2024/03/13 00:51:18;;;;;;;5.53;2.73;;;;;;;;;;5115445;28;20292;-85
2024/03/13 00:53:48;;;;;;;2.37;1.93;;;;;;;;;;5115123;28;20205;-85
2024/03/13 00:56:15;;;;;;;5.67;2.60;;;;;;;;;;5074816;28;20203;-84
2024/03/13 00:58:43;;;;;;;3.43;2.10;;;;;;;;;;5074046;28;20195;-85
2024/03/13 01:01:12;;;;;;;4.63;1.80;;;;;;;;;;5074206;28;20735;-85
2024/03/13 01:03:40;;;;;;;5.07;2.60;;;;;;;;;;5074647;28;20249;-84
2024/03/13 01:06:07;;;;;;;3.73;2.40;;;;;;;;;;5074289;28;20589;-85
2024/03/13 01:08:35;;;;;;;8.23;2.77;;;;;;;;;;5074711;28;20203;-85
2024/03/13 01:11:04;;;;;;;6.27;2.60;;;;;;;;;;5074348;28;20206;-85
2024/03/13 01:13:32;;;;;;;7.20;2.63;;;;;;;;;;5060773;28;20747;-84
2024/03/13 01:15:59;;;;;;;6.10;2.07;;;;;;;;;;5054663;28;20208;-84
2024/03/13 01:18:26;;;;;;;3.97;2.20;;;;;;;;;;5054279;28;20242;-85
2024/03/13 01:20:55;;;;;;;5.00;2.10;;;;;;;;;;5054429;28;20285;-85
2024/03/13 01:23:22;;;;;;;5.80;2.10;;;;;;;;;;5052892;28;20230;-84
2024/03/13 01:25:53;;;;;;;6.50;2.60;;;;;;;;;;5054107;28;20224;-85
2024/03/13 01:28:22;;;;;;;7.47;2.93;;;;;;;;;;5053594;28;20196;-85
2024/03/13 01:30:49;;;;;;;6.60;3.47;;;;;;;;;;5054052;28;20202;-84
2024/03/13 01:33:16;;;;;;;7.23;3.40;;;;;;;;;;5053552;28;20681;-85
2024/03/13 01:35:43;;;;;;;8.63;3.73;;;;;;;;;;5054555;28;20280;-84
2024/03/13 01:38:10;;;;;;;7.43;3.63;;;;;;;;;;5053721;28;20231;-84
2024/03/13 01:54:54;;;;;;;5.20;2.87;;;;;;;;;;5065371;28;20296;-86
2024/03/13 01:57:31;;;;;;;6.77;2.80;;;;;;;;;;5093582;28;20197;-84
2024/03/13 02:02:46;;;;;;;6.30;2.67;;;;;;;;;;5093365;28;20318;-85
2024/03/13 02:05:15;;;;;;;7.30;3.00;;;;;;;;;;5093472;28;20226;-85
2024/03/13 02:07:43;;;;;;;7.53;3.20;;;;;;;;;;5093142;28;20553;-85
2024/03/13 02:10:10;;;;;;;6.23;3.40;;;;;;;;;;5092784;28;20194;-85
2024/03/13 02:12:38;;;;;;;4.70;2.57;;;;;;;;;;5087820;28;20215;-85
2024/03/13 02:15:08;;;;;;;5.80;2.70;;;;;;;;;;5073448;28;20574;-85
2024/03/13 02:17:38;;;;;;;5.10;2.40;;;;;;;;;;5073299;28;20432;-84
2024/03/13 02:20:07;;;;;;;3.37;1.90;;;;;;;;;;5072728;28;20200;-85
2024/03/13 02:22:37;;;;;;;4.13;1.80;;;;;;;;;;5072687;28;20226;-85
2024/03/13 02:25:05;;;;;;;1.97;1.60;;;;;;;;;;5072688;28;20231;-85
2024/03/13 02:27:33;;;;;;;2.53;1.60;;;;;;;;;;5055761;28;20232;-85
2024/03/13 02:30:01;;;;;;;4.23;1.20;;;;;;;;;;5055592;28;20195;-84
2024/03/13 02:32:29;;;;;;;3.77;1.50;;;;;;;;;;5055147;28;20673;-85
2024/03/13 02:34:57;;;;;;;2.50;1.30;;;;;;;;;;5055210;28;20234;-85
2024/03/13 02:37:24;;;;;;;3.83;1.30;;;;;;;;;;5054547;28;20669;-84
2024/03/13 02:39:52;;;;;;;2.50;1.20;;;;;;;;;;5054384;28;20290;-85
2024/03/13 02:42:20;;;;;;;2.47;1.63;;;;;;;;;;5054890;28;20321;-84
2024/03/13 02:44:47;;;;;;;2.63;1.17;;;;;;;;;;5054989;28;20284;-84
2024/03/13 02:47:14;;;;;;;3.83;1.30;;;;;;;;;;5054867;28;20226;-85
2024/03/13 02:49:43;;;;;;;4.10;1.70;;;;;;;;;;5055178;28;20203;-84
2024/03/13 02:52:10;;;;;;;3.77;1.50;;;;;;;;;;5054397;28;20195;-86
2024/03/13 02:54:37;;;;;;;3.03;1.50;;;;;;;;;;5053730;28;20231;-84
2024/03/13 02:57:05;;;;;;;5.67;1.77;;;;;;;;;;5054644;28;20222;-84
2024/03/13 02:59:34;;;;;;;2.77;2.07;;;;;;;;;;5054734;28;20284;-85
2024/03/13 03:02:01;;;;;;;3.90;1.90;;;;;;;;;;5054391;28;20223;-84
2024/03/13 03:04:28;;;;;;;4.20;2.10;;;;;;;;;;5054816;28;20223;-85
2024/03/13 03:06:56;;;;;;;5.13;2.33;;;;;;;;;;5054724;28;20238;-86
2024/03/13 03:09:23;;;;;;;3.37;2.10;;;;;;;;;;5054568;28;20230;-85
2024/03/13 03:11:50;;;;;;;4.17;2.27;;;;;;;;;;5054536;28;20199;-85
2024/03/13 03:14:18;;;;;;;6.37;2.40;;;;;;;;;;5073871;28;20242;-86
2024/03/13 03:16:45;;;;;;;4.27;2.33;;;;;;;;;;5074378;28;20241;-85
2024/03/13 03:19:19;;;;;;;4.37;2.30;;;;;;;;;;5074175;28;20645;-85
2024/03/13 03:21:47;;;;;;;2.73;1.93;;;;;;;;;;5075389;28;20226;-85
2024/03/13 03:24:14;;;;;;;4.10;2.00;;;;;;;;;;5074535;28;20202;-86
2024/03/13 03:26:41;;;;;;;3.40;2.20;;;;;;;;;;5070799;28;20202;-85
2024/03/13 03:29:09;;;;;;;4.67;2.10;;;;;;;;;;5063003;28;20643;-86
2024/03/13 03:31:36;;;;;;;3.10;2.20;;;;;;;;;;5054341;28;20226;-85
2024/03/13 03:34:04;;;;;;;6.10;2.57;;;;;;;;;;5054003;28;20222;-86
2024/03/13 03:36:31;;;;;;;2.90;1.87;;;;;;;;;;5053979;28;20228;-86
2024/03/13 03:38:59;;;;;;;2.70;1.87;;;;;;;;;;5037490;28;20194;-84
2024/03/13 03:41:26;;;;;;;3.10;2.00;;;;;;;;;;5053518;28;20230;-85
2024/03/13 03:43:54;;;;;;;2.97;2.20;;;;;;;;;;5053899;28;20237;-85
2024/03/13 03:46:21;;;;;;;3.43;2.13;;;;;;;;;;5054391;28;20195;-85
2024/03/13 03:48:49;;;;;;;4.73;2.27;;;;;;;;;;5053462;28;20278;-85
2024/03/13 03:51:18;;;;;;;3.77;1.90;;;;;;;;;;5054066;28;20302;-84
2024/03/13 03:53:45;;;;;;;3.30;1.80;;;;;;;;;;5054065;28;20199;-84
2024/03/13 03:56:13;;;;;;;3.47;1.77;;;;;;;;;;5053749;28;20231;-86
2024/03/13 03:58:42;;;;;;;4.27;2.17;;;;;;;;;;5054024;28;20195;-86
2024/03/13 04:01:10;;;;;;;3.60;2.03;;;;;;;;;;5053985;28;20210;-86
2024/03/13 04:03:37;;;;;;;3.53;2.03;;;;;;;;;;5053719;28;20716;-85
2024/03/13 04:06:05;;;;;;;3.73;2.33;;;;;;;;;;5053374;28;20215;-85
2024/03/13 04:08:33;;;;;;;6.57;2.83;;;;;;;;;;5053679;28;20237;-85
2024/03/13 04:11:01;;;;;;;6.50;2.70;;;;;;;;;;5053714;28;20199;-86
2024/03/13 04:13:28;;;;;;;4.03;2.73;;;;;;;;;;5079205;28;20287;-85
2024/03/13 04:15:56;;;;;;;5.17;3.10;;;;;;;;;;5094101;28;20235;-84
2024/03/13 04:18:23;;;;;;;4.53;2.80;;;;;;;;;;5093554;28;20198;-85
2024/03/13 04:20:51;;;;;;;4.67;3.20;;;;;;;;;;5093587;28;20897;-85
2024/03/13 04:23:18;;;;;;;5.43;3.57;;;;;;;;;;5093954;28;20325;-86
2024/03/13 04:25:46;;;;;;;5.60;3.30;;;;;;;;;;5094003;28;20316;-84
2024/03/13 04:28:13;;;;;;;5.97;3.80;;;;;;;;;;5094115;28;20280;-85
2024/03/13 04:30:41;;;;;;;5.47;3.60;;;;;;;;;;5093900;28;20233;-85
2024/03/13 04:33:08;;;;;;;5.50;3.50;;;;;;;;;;5093900;28;20243;-86
2024/03/13 04:35:35;;;;;;;6.97;3.10;;;;;;;;;;5093554;28;20202;-86
2024/03/13 04:38:04;;;;;;;4.83;3.10;;;;;;;;;;5094182;28;20258;-86
2024/03/13 04:40:31;;;;;;;4.80;3.30;;;;;;;;;;5094423;28;20297;-86
2024/03/13 04:43:00;;;;;;;6.57;2.90;;;;;;;;;;5093715;28;20225;-85
2024/03/13 04:45:27;;;;;;;4.60;2.70;;;;;;;;;;5094012;28;20239;-85
2024/03/13 04:47:54;;;;;;;5.87;2.63;;;;;;;;;;5093619;28;20730;-86
2024/03/13 04:50:22;;;;;;;4.90;2.80;;;;;;;;;;5093757;28;20235;-85
2024/03/13 04:52:49;;;;;;;5.33;3.00;;;;;;;;;;5093849;28;20225;-85
2024/03/13 04:55:16;;;;;;;5.73;2.97;;;;;;;;;;5093483;28;20711;-85
2024/03/13 04:57:44;;;;;;;4.10;2.30;;;;;;;;;;5094080;28;20190;-86
2024/03/13 05:00:12;;;;;;;4.70;2.83;;;;;;;;;;5071867;28;20834;-85
2024/03/13 05:02:39;;;;;;;5.77;2.73;;;;;;;;;;5056840;28;20249;-85
2024/03/13 05:05:09;;;;;;;5.67;3.10;;;;;;;;;;5073052;28;20222;-85
2024/03/13 05:07:36;;;;;;;5.97;2.90;;;;;;;;;;5065577;28;20218;-85
2024/03/13 05:10:06;;;;;;;4.53;2.40;;;;;;;;;;5052772;28;20285;-86
2024/03/13 05:12:36;;;;;;;5.33;2.77;;;;;;;;;;5058510;28;20236;-85
2024/03/13 05:15:04;;;;;;;5.90;2.57;;;;;;;;;;5073777;28;20201;-86
2024/03/13 05:17:31;;;;;;;4.83;2.80;;;;;;;;;;5076668;28;20672;-85
2024/03/13 05:19:59;;;;;;;4.90;2.73;;;;;;;;;;5076350;28;20283;-85
2024/03/13 05:22:29;;;;;;;5.43;2.57;;;;;;;;;;5076695;28;20222;-85
2024/03/13 05:24:58;;;;;;;4.47;3.13;;;;;;;;;;5076567;28;20236;-85
2024/03/13 05:27:25;;;;;;;8.00;3.37;;;;;;;;;;5077177;28;20254;-86
2024/03/13 05:29:53;;;;;;;4.17;2.80;;;;;;;;;;5076287;28;20579;-84
2024/03/13 05:32:20;;;;;;;7.40;3.33;;;;;;;;;;5076203;28;20233;-85
2024/03/13 05:34:48;;;;;;;5.27;3.10;;;;;;;;;;5075964;28;20657;-85
2024/03/13 05:37:15;;;;;;;7.00;3.53;;;;;;;;;;5076215;28;20199;-85
2024/03/13 05:39:42;;;;;;;6.03;3.50;;;;;;;;;;5076849;28;20229;-85
2024/03/13 05:42:11;;;;;;;8.00;3.93;;;;;;;;;;5076058;28;20271;-86
2024/03/13 05:44:39;;;;;;;7.13;3.70;;;;;;;;;;5073370;28;20191;-85
2024/03/13 05:47:05;;;;;;;8.17;3.90;;;;;;;;;;5063568;28;20207;-85
2024/03/13 05:49:33;;;;;;;8.60;3.77;;;;;;;;;;5056147;28;20665;-86
2024/03/13 05:52:01;;;;;;;6.67;3.90;;;;;;;;;;5056132;28;20219;-86
2024/03/13 05:54:28;;;;;;;9.07;3.90;;;;;;;;;;5056137;28;20235;-86
2024/03/13 05:56:56;;;;;;;8.00;4.00;;;;;;;;;;5039551;28;20676;-86
2024/03/13 05:59:24;;;;;;;7.53;3.97;;;;;;;;;;5056066;28;20201;-86
2024/03/13 06:01:51;;;;;;;10.73;4.13;;;;;;;;;;5055594;28;20199;-84
2024/03/13 06:04:20;;;;;;;8.83;4.10;;;;;;;;;;5055773;28;20273;-84
2024/03/13 06:06:49;;;;;;;7.87;4.13;;;;;;;;;;5055744;28;20195;-85
2024/03/13 06:09:16;;;;;;;8.23;3.80;;;;;;;;;;5056560;28;20191;-84
2024/03/13 06:11:44;;;;;;;10.60;4.13;;;;;;;;;;5055787;28;20195;-85
2024/03/13 06:14:11;;;;;;;9.93;4.10;;;;;;;;;;5092942;28;20305;-86
2024/03/13 06:16:39;;;;;;;8.40;4.50;;;;;;;;;;5095342;28;20223;-86
2024/03/13 06:19:06;;;;;;;9.33;4.27;;;;;;;;;;5095752;28;20293;-85
2024/03/13 06:21:34;;;;;;;9.63;4.70;;;;;;;;;;5095681;28;20659;-84
2024/03/13 06:24:05;;;;;;;12.90;4.70;;;;;;;;;;5095418;28;20225;-86
2024/03/13 06:26:33;;;;;;;9.60;4.67;;;;;;;;;;5096323;28;20221;-81
2024/03/13 06:31:46;;;;;;;11.90;5.33;;;;;;;;;;5097403;28;20200;-84
2024/03/13 06:34:13;;;;;;;12.03;5.00;;;;;;;;;;5094860;28;20221;-83
2024/03/13 06:36:40;;;;;;;10.77;4.77;;;;;;;;;;5095376;28;20204;-83
2024/03/13 06:39:09;;;;;;;11.37;4.87;;;;;;;;;;5088817;28;20206;-83
2024/03/13 06:41:36;;;;;;;12.57;4.97;;;;;;;;;;5075717;28;20231;-84
2024/03/13 06:44:05;;;;;;;9.57;5.10;;;;;;;;;;5074433;28;20230;-84
2024/03/13 06:46:33;;;;;;;12.30;4.83;;;;;;;;;;5078399;28;20225;-83
2024/03/13 06:49:00;;;;;;;12.80;5.80;;;;;;;;;;5074642;28;20251;-84
2024/03/13 06:51:28;;;;;;;9.50;5.63;;;;;;;;;;5074206;28;20692;-83
2024/03/13 06:53:55;;;;;;;9.30;5.13;;;;;;;;;;5074321;28;20226;-82
2024/03/13 06:56:22;;;;;;;15.23;5.30;;;;;;;;;;5073648;28;20222;-82
2024/03/13 06:58:50;;;;;;;8.63;4.50;;;;;;;;;;5053311;28;20203;-81
2024/03/13 07:01:18;;;;;;;9.03;4.83;;;;;;;;;;5064359;28;20198;-82
2024/03/13 07:03:46;;;;;;;9.37;4.77;;;;;;;;;;5072391;28;20226;-82
2024/03/13 07:06:14;;;;;;;9.93;4.90;;;;;;;;;;5072910;28;20720;-82
2024/03/13 07:08:42;;;;;;;9.17;4.80;;;;;;;;;;5073585;28;20297;-81
2024/03/13 07:11:09;;;;;;;9.80;4.80;;;;;;;;;;5071856;28;20288;-82
2024/03/13 07:13:36;;;;;;;8.13;4.47;;;;;;;;;;4720794;28;10000199;-82
2024/03/13 07:16:04;;;;;;;8.87;4.77;;;;;;;;;;5071654;28;20339;-82
2024/03/13 07:18:31;;;;;;;9.47;5.53;;;;;;;;;;5068036;28;20256;-83
2024/03/13 07:20:59;;;;;;;8.37;4.83;;;;;;;;;;5057177;28;20202;-80
2024/03/13 07:23:27;;;;;;;10.70;4.80;;;;;;;;;;5074194;28;20246;-83
2024/03/13 07:25:55;;;;;;;10.57;5.00;;;;;;;;;;5057959;28;20632;-82
2024/03/13 07:28:22;;;;;;;9.93;5.00;;;;;;;;;;5059205;28;20203;-83
2024/03/13 07:30:49;;;;;;;12.77;5.10;;;;;;;;;;5054343;28;20227;-82
2024/03/13 07:33:17;;;;;;;9.70;4.57;;;;;;;;;;5063928;28;20225;-81
2024/03/13 07:35:44;;;;;;;10.23;5.10;;;;;;;;;;5062793;28;20260;-81
2024/03/13 07:38:11;;;;;;;8.83;5.20;;;;;;;;;;5053658;28;20653;-79
2024/03/13 07:40:39;;;;;;;9.30;5.10;;;;;;;;;;5053415;28;20287;-80
2024/03/13 07:43:08;;;;;;;9.27;5.00;;;;;;;;;;5054522;28;20231;-79
2024/03/13 07:45:37;;;;;;;8.07;4.67;;;;;;;;;;5073638;28;20589;-81
2024/03/13 07:48:07;;;;;;;8.57;4.57;;;;;;;;;;5073481;28;20584;-81
2024/03/13 07:50:35;;;;;;;7.93;4.13;;;;;;;;;;5068215;28;20198;-82
2024/03/13 07:53:04;;;;;;;10.27;4.13;;;;;;;;;;5064426;28;20306;-82
2024/03/13 07:55:31;;;;;;;7.37;4.10;;;;;;;;;;5053634;28;20317;-82
2024/03/13 07:58:00;;;;;;;10.83;4.20;;;;;;;;;;5072852;28;20198;-81
2024/03/13 08:00:28;;;;;;;5.77;4.13;;;;;;;;;;5073651;28;20205;-83
2024/03/13 08:02:55;;;;;;;8.40;3.65;;;;;;;;;;5074245;28;20228;-82
2024/03/13 08:05:23;;;;;;;5.43;3.38;;;;;;;;;;5073392;28;20194;-84
2024/03/13 08:07:50;;;;;;;6.07;3.28;;;;;;;;;;5073516;28;20202;-82
2024/03/13 08:10:18;;;;;;;7.45;3.17;;;;;;;;;;5073528;28;20234;-82
2024/03/13 08:12:46;;;;;;;10.57;3.53;;;;;;;;;;5073393;28;20269;-83
2024/03/13 08:15:13;;;;;;;4.55;3.00;;;;;;;;;;5073326;28;20190;-84
2024/03/13 08:17:42;;;;;;;7.90;3.45;;;;;;;;;;5073455;28;20202;-81
2024/03/13 08:20:12;;;;;;;7.13;3.30;;;;;;;;;;5073651;28;20284;-82
2024/03/13 08:22:40;;;;;;;5.55;3.65;;;;;;;;;;5073329;28;20237;-81
2024/03/13 08:25:15;;;;;;;7.35;3.53;;;;;;;;;;5073627;28;20198;-81
2024/03/13 08:27:43;;;;;;;5.63;3.53;;;;;;;;;;5073776;28;20664;-81
2024/03/13 08:30:11;;;;;;;7.53;3.70;;;;;;;;;;5073246;28;20277;-83
2024/03/13 08:32:39;;;;;;;8.57;3.80;;;;;;;;;;5072696;28;20691;-82
2024/03/13 08:35:08;;;;;;;11.03;4.20;;;;;;;;;;5073110;28;20201;-82
2024/03/13 08:37:35;;;;;;;6.13;3.53;;;;;;;;;;5073863;28;20260;-81
2024/03/13 08:40:07;;;;;;;6.23;3.40;;;;;;;;;;5073456;28;20201;-81
2024/03/13 08:42:35;;;;;;;6.70;3.43;;;;;;;;;;5072922;28;20198;-82
2024/03/13 08:45:03;;;;;;;7.13;3.57;;;;;;;;;;5073303;28;20751;-81
2024/03/13 08:47:30;;;;;;;6.37;2.80;;;;;;;;;;5073905;28;20246;-81
2024/03/13 08:49:57;;;;;;;6.10;2.67;;;;;;;;;;5073116;28;20195;-82
2024/03/13 08:52:25;;;;;;;6.37;2.33;;;;;;;;;;5076235;28;20290;-81
2024/03/13 08:54:54;;;;;;;4.53;2.30;;;;;;;;;;5077312;28;20260;-81
2024/03/13 08:57:21;;;;;;;5.27;2.27;;;;;;;;;;5076687;28;20290;-82
2024/03/13 08:59:49;;;;;;;4.53;2.23;;;;;;;;;;5077068;28;20199;-83
2024/03/13 09:02:16;;;;;;;5.22;2.50;;;;;;;;;;5076654;28;20226;-84
2024/03/13 09:04:45;;;;;;;4.00;2.57;;;;;;;;;;5076648;28;20233;-82
2024/03/13 09:07:12;;;;;;;6.38;2.40;;;;;;;;;;5076767;28;20610;-82
2024/03/13 09:09:40;;;;;;;5.63;2.35;;;;;;;;;;5077004;28;20241;-83
2024/03/13 09:12:08;;;;;;;2.72;1.65;;;;;;;;;;5076594;28;20286;-84
2024/03/13 09:14:37;;;;;;;3.88;1.65;;;;;;;;;;5076749;28;20202;-82
2024/03/13 09:17:06;;;;;;;3.35;1.45;;;;;;;;;;5076960;28;20205;-82
2024/03/13 09:19:37;;;;;;;3.95;1.27;;;;;;;;;;5076711;28;20195;-84
2024/03/13 09:22:04;;;;;;;5.13;1.58;;;;;;;;;;5076843;28;20252;-83
2024/03/13 09:24:32;;;;;;;1.98;1.02;;;;;;;;;;5076216;28;20226;-83
2024/03/13 09:26:59;;;;;;;4.00;1.55;;;;;;;;;;5076919;28;20232;-82
2024/03/13 09:29:27;;;;;;;2.88;1.30;;;;;;;;;;5076682;28;20226;-83
2024/03/13 09:31:54;;;;;;;2.35;1.15;;;;;;;;;;5076351;28;20675;-83
2024/03/13 09:34:22;;;;;;;2.28;1.10;;;;;;;;;;5076105;28;20289;-83
2024/03/13 09:36:49;;;;;;;3.80;0.80;;;;;;;;;;5076693;28;20281;-83
2024/03/13 09:39:16;;;;;;;1.65;0.60;;;;;;;;;;5075551;28;20676;-84
2024/03/13 09:41:44;;;;;;;2.53;0.63;;;;;;;;;;5076127;28;20190;-83
2024/03/13 09:44:15;;;;;;;4.13;0.80;;;;;;;;;;5076650;28;20224;-83
2024/03/13 09:46:42;;;;;;;2.40;0.75;;;;;;;;;;5076569;28;20202;-84
2024/03/13 09:49:10;;;;;;;3.38;0.75;;;;;;;;;;5076090;28;20226;-84
2024/03/13 09:51:37;;;;;;;2.08;0.77;;;;;;;;;;5076187;28;20191;-83
2024/03/13 09:54:06;;;;;;;2.60;0.90;;;;;;;;;;5075540;28;20233;-84
2024/03/13 09:56:34;;;;;;;3.58;0.70;;;;;;;;;;5075960;28;20198;-82
2024/03/13 09:59:04;;;;;;;2.78;0.70;;;;;;;;;;5076149;28;20200;-83
2024/03/13 10:01:34;;;;;;;1.88;0.70;;;;;;;;;;5075903;28;20198;-84
2024/03/13 10:04:10;;;;;;;1.38;0.75;;;;;;;;;;5075699;28;20230;-82
2024/03/13 10:06:38;;;;;;;1.88;0.60;;;;;;;;;;5077047;28;20190;-83
2024/03/13 10:09:11;;;;;;;3.15;0.93;;;;;;;;;;5075314;28;20201;-84
2024/03/13 10:11:39;;;;;;;1.55;0.70;;;;;;;;;;5077021;28;20206;-83
2024/03/13 10:14:07;;;;;;;2.17;0.90;;;;;;;;;;5093931;28;20205;-83
2024/03/13 10:16:34;;;;;;;3.92;0.80;;;;;;;;;;5095714;28;20247;-83
2024/03/13 10:19:02;;;;;;;3.83;0.90;;;;;;;;;;5096212;28;20228;-84
2024/03/13 10:21:30;;;;;;;2.88;0.90;;;;;;;;;;5095767;28;20623;-83
2024/03/13 10:23:57;;;;;;;1.60;0.70;;;;;;;;;;5095372;28;20233;-84
2024/03/13 10:26:26;;;;;;;3.67;1.00;;;;;;;;;;5095382;28;20652;-84
2024/03/13 10:28:53;;;;;;;3.17;0.80;;;;;;;;;;5095915;28;20194;-83
2024/03/13 10:31:21;;;;;;;4.20;1.10;;;;;;;;;;5095482;28;20244;-83
2024/03/13 10:33:52;;;;;;;4.25;0.88;;;;;;;;;;5095254;28;20198;-82
2024/03/13 10:36:20;;;;;;;3.33;0.90;;;;;;;;;;5077661;28;20203;-82
2024/03/13 10:38:48;;;;;;;4.28;0.77;;;;;;;;;;5075257;28;20202;-84
2024/03/13 10:41:16;;;;;;;2.72;1.00;;;;;;;;;;5074826;28;20244;-83
2024/03/13 10:43:43;;;;;;;2.13;0.75;;;;;;;;;;5074824;28;20975;-83
2024/03/13 10:46:12;;;;;;;3.78;0.93;;;;;;;;;;5074742;28;20195;-84
2024/03/13 10:48:40;;;;;;;2.45;1.00;;;;;;;;;;5075304;28;20194;-83
2024/03/13 10:51:09;;;;;;;2.90;1.10;;;;;;;;;;5074439;28;20624;-82
2024/03/13 10:53:37;;;;;;;4.57;1.20;;;;;;;;;;5074563;28;20290;-83
2024/03/13 10:56:04;;;;;;;4.43;1.00;;;;;;;;;;5074314;28;20314;-84
2024/03/13 10:58:33;;;;;;;2.83;1.25;;;;;;;;;;5057702;28;20308;-81
2024/03/13 11:01:02;;;;;;;2.92;1.02;;;;;;;;;;5074651;28;20703;-84
2024/03/13 11:03:29;;;;;;;2.80;1.00;;;;;;;;;;5075053;28;20201;-82
2024/03/13 11:05:56;;;;;;;2.67;1.10;;;;;;;;;;5074297;28;20194;-84
2024/03/13 11:08:26;;;;;;;2.67;1.45;;;;;;;;;;5074239;28;20277;-84
2024/03/13 11:10:54;;;;;;;3.45;1.50;;;;;;;;;;5057659;28;20275;-84
2024/03/13 11:13:24;;;;;;;3.60;1.20;;;;;;;;;;5085612;28;20251;-83
2024/03/13 11:15:52;;;;;;;5.03;1.50;;;;;;;;;;5095048;28;20198;-82
2024/03/13 11:18:21;;;;;;;5.05;1.50;;;;;;;;;;5094711;28;20229;-83
2024/03/13 11:20:50;;;;;;;6.53;1.88;;;;;;;;;;5085295;28;20191;-83
2024/03/13 11:23:19;;;;;;;2.65;1.30;;;;;;;;;;5071088;28;20787;-83
2024/03/13 11:25:47;;;;;;;3.15;1.10;;;;;;;;;;5074435;28;20642;-82
2024/03/13 11:28:15;;;;;;;4.05;1.73;;;;;;;;;;5074716;28;20247;-82
2024/03/13 11:30:42;;;;;;;4.20;1.40;;;;;;;;;;5074186;28;20290;-83
2024/03/13 11:33:10;;;;;;;3.85;1.20;;;;;;;;;;5074170;28;20252;-84
2024/03/13 11:35:37;;;;;;;2.38;1.15;;;;;;;;;;5073571;28;20732;-83
2024/03/13 11:38:04;;;;;;;3.22;1.20;;;;;;;;;;5074243;28;20198;-83
2024/03/13 11:40:35;;;;;;;3.08;1.15;;;;;;;;;;5074050;28;20278;-84
2024/03/13 11:43:04;;;;;;;2.22;1.10;;;;;;;;;;5074316;28;20198;-83
2024/03/13 11:45:32;;;;;;;3.60;1.20;;;;;;;;;;5074247;28;20225;-84
2024/03/13 11:48:01;;;;;;;1.90;1.00;;;;;;;;;;5074112;28;20224;-84
2024/03/13 11:50:28;;;;;;;3.42;1.15;;;;;;;;;;5073614;28;20252;-85
2024/03/13 11:53:01;;;;;;;3.17;1.30;;;;;;;;;;5074357;28;20229;-84
2024/03/13 11:55:29;;;;;;;4.43;1.40;;;;;;;;;;5073564;28;20258;-85
2024/03/13 11:58:08;;;;;;;4.22;1.42;;;;;;;;;;5073873;28;20202;-84
2024/03/13 12:00:35;;;;;;;3.53;1.23;;;;;;;;;;5073584;28;20222;-84
2024/03/13 12:03:03;;;;;;;3.83;1.20;;;;;;;;;;5073911;28;20194;-86
2024/03/13 12:05:32;;;;;;;4.13;1.30;;;;;;;;;;5067111;28;20227;-85
2024/03/13 12:08:00;;;;;;;4.00;1.35;;;;;;;;;;5074356;28;20676;-86
2024/03/13 12:10:29;;;;;;;3.83;1.30;;;;;;;;;;5064026;28;20194;-85
2024/03/13 12:12:56;;;;;;;3.88;1.30;;;;;;;;;;5080014;28;20574;-86
2024/03/13 12:15:24;;;;;;;5.28;1.42;;;;;;;;;;5082622;28;20202;-85
2024/03/13 12:18:04;;;;;;;2.63;1.10;;;;;;;;;;5076529;28;20290;-84
2024/03/13 12:20:36;;;;;;;3.92;1.67;;;;;;;;;;5078343;28;20210;-85
2024/03/13 12:23:03;;;;;;;3.33;1.40;;;;;;;;;;5077649;28;20201;-84
2024/03/13 12:25:31;;;;;;;5.05;1.30;;;;;;;;;;5095862;28;20312;-85
2024/03/13 12:27:58;;;;;;;5.75;1.60;;;;;;;;;;5094427;28;20668;-85
2024/03/13 12:30:29;;;;;;;6.93;1.60;;;;;;;;;;5097552;28;20225;-85
2024/03/13 12:32:58;;;;;;;3.60;1.55;;;;;;;;;;5081507;28;20285;-84
2024/03/13 12:35:26;;;;;;;5.43;1.70;;;;;;;;;;5077941;28;20738;-85
2024/03/13 12:37:57;;;;;;;4.35;1.10;;;;;;;;;;5080337;28;20205;-85
2024/03/13 12:40:24;;;;;;;3.60;1.40;;;;;;;;;;5079874;28;20191;-85
2024/03/13 12:42:52;;;;;;;3.83;1.30;;;;;;;;;;5077213;28;20215;-84
2024/03/13 12:45:19;;;;;;;3.03;1.50;;;;;;;;;;5077139;28;20230;-84
2024/03/13 12:47:46;;;;;;;3.63;1.38;;;;;;;;;;5076632;28;20285;-84
2024/03/13 12:50:15;;;;;;;2.22;1.13;;;;;;;;;;5077165;28;20218;-85
2024/03/13 12:52:44;;;;;;;4.10;1.50;;;;;;;;;;5087994;28;20668;-85
2024/03/13 12:55:12;;;;;;;3.28;1.33;;;;;;;;;;5076170;28;20239;-84
2024/03/13 12:57:40;;;;;;;5.45;1.73;;;;;;;;;;5086535;28;20203;-84
2024/03/13 13:00:13;;;;;;;4.18;1.20;;;;;;;;;;5073661;28;20206;-83
2024/03/13 13:02:42;;;;;;;3.70;1.38;;;;;;;;;;5075655;28;20680;-85
2024/03/13 13:05:10;;;;;;;3.28;1.42;;;;;;;;;;5076858;28;20232;-84
2024/03/13 13:07:39;;;;;;;4.10;1.40;;;;;;;;;;5072898;28;20281;-85
2024/03/13 13:10:11;;;;;;;3.28;1.20;;;;;;;;;;5076753;28;20218;-84
2024/03/13 13:12:38;;;;;;;4.53;1.40;;;;;;;;;;5086887;28;20194;-84
2024/03/13 13:15:06;;;;;;;4.40;1.30;;;;;;;;;;5096817;28;20221;-84
2024/03/13 13:17:33;;;;;;;4.00;1.23;;;;;;;;;;5080900;28;20688;-85
2024/03/13 13:20:00;;;;;;;5.50;1.30;;;;;;;;;;5075125;28;20205;-85
2024/03/13 13:22:27;;;;;;;2.95;1.02;;;;;;;;;;5072779;28;20289;-85
2024/03/13 13:24:55;;;;;;;3.03;1.20;;;;;;;;;;5069333;28;20253;-84
2024/03/13 13:27:22;;;;;;;1.73;1.00;;;;;;;;;;5064811;28;20999;-84
2024/03/13 13:29:49;;;;;;;3.72;1.20;;;;;;;;;;5063686;28;20664;-85
2024/03/13 13:32:17;;;;;;;1.83;1.20;;;;;;;;;;5075749;28;20203;-85
2024/03/13 13:34:50;;;;;;;3.00;1.40;;;;;;;;;;5075953;28;20202;-85
2024/03/13 13:37:19;;;;;;;2.25;1.27;;;;;;;;;;5075803;28;20194;-86
2024/03/13 13:39:46;;;;;;;4.32;1.38;;;;;;;;;;5076462;28;20300;-86
2024/03/13 13:42:15;;;;;;;3.28;1.10;;;;;;;;;;5074163;28;20676;-85
2024/03/13 13:44:42;;;;;;;2.83;0.90;;;;;;;;;;5056281;28;20770;-84
2024/03/13 13:47:10;;;;;;;1.58;0.80;;;;;;;;;;5075153;28;20289;-83
2024/03/13 13:49:37;;;;;;;4.10;1.10;;;;;;;;;;5076078;28;20199;-83
2024/03/13 13:52:06;;;;;;;1.98;0.90;;;;;;;;;;5075964;28;20217;-84
2024/03/13 13:54:33;;;;;;;3.20;1.00;;;;;;;;;;5075700;28;20230;-84
2024/03/13 13:57:01;;;;;;;2.20;0.93;;;;;;;;;;5075619;28;20205;-84
2024/03/13 13:59:29;;;;;;;3.45;1.33;;;;;;;;;;5072974;28;20199;-84
2024/03/13 14:01:56;;;;;;;3.08;1.42;;;;;;;;;;5075036;28;20209;-84
2024/03/13 14:04:23;;;;;;;2.95;1.00;;;;;;;;;;5080656;28;20347;-85
2024/03/13 14:06:51;;;;;;;3.80;1.10;;;;;;;;;;5075375;28;20297;-85
2024/03/13 14:09:19;;;;;;;2.00;0.90;;;;;;;;;;5075235;28;20228;-85
2024/03/13 14:11:47;;;;;;;3.67;1.30;;;;;;;;;;5075667;28;20553;-84
2024/03/13 14:14:15;;;;;;;2.78;1.10;;;;;;;;;;5075600;28;20206;-84
2024/03/13 14:16:43;;;;;;;3.60;1.40;;;;;;;;;;5075322;28;20214;-85
2024/03/13 14:19:12;;;;;;;3.33;1.20;;;;;;;;;;5075927;28;20206;-84
2024/03/13 14:21:40;;;;;;;4.47;1.35;;;;;;;;;;5075866;28;20207;-84
2024/03/13 14:24:08;;;;;;;3.90;1.17;;;;;;;;;;5075702;28;20197;-85
2024/03/13 14:26:36;;;;;;;3.03;1.10;;;;;;;;;;5075212;28;20222;-85
2024/03/13 14:29:05;;;;;;;3.13;1.20;;;;;;;;;;5074795;28;20195;-84
2024/03/13 14:31:33;;;;;;;2.63;1.02;;;;;;;;;;5075719;28;20702;-85
2024/03/13 14:34:00;;;;;;;1.88;1.00;;;;;;;;;;5075469;28;20213;-85
2024/03/13 14:36:28;;;;;;;3.33;1.17;;;;;;;;;;5075296;28;20267;-85
2024/03/13 14:38:55;;;;;;;4.15;1.30;;;;;;;;;;5075273;28;20205;-85
2024/03/13 14:41:23;;;;;;;5.63;1.45;;;;;;;;;;5074850;28;20289;-86
2024/03/13 14:43:50;;;;;;;2.72;1.20;;;;;;;;;;5074870;28;20195;-85
2024/03/13 14:46:19;;;;;;;2.97;1.10;;;;;;;;;;5075084;28;20229;-85
2024/03/13 14:48:47;;;;;;;4.03;1.20;;;;;;;;;;5074022;28;20572;-85
2024/03/13 14:51:14;;;;;;;3.35;1.38;;;;;;;;;;5075059;28;20217;-84
2024/03/13 14:53:42;;;;;;;4.35;1.48;;;;;;;;;;5074970;28;20349;-85
2024/03/13 14:56:10;;;;;;;4.18;1.65;;;;;;;;;;5074894;28;20609;-85
2024/03/13 14:58:39;;;;;;;4.15;1.40;;;;;;;;;;5074437;28;20195;-85
2024/03/13 15:01:07;;;;;;;2.90;1.10;;;;;;;;;;5074930;28;20209;-86
2024/03/13 15:03:38;;;;;;;3.75;1.38;;;;;;;;;;5075083;28;20217;-86
2024/03/13 15:06:05;;;;;;;3.00;1.40;;;;;;;;;;5075175;28;20747;-84
2024/03/13 15:08:33;;;;;;;2.42;1.20;;;;;;;;;;5070278;28;20307;-85